VIV4110 MMMY-MMHO
Flight info
| Callsign | VIV4110 |
|---|---|
| Flight time | N/A |
| Altitude | 34000 |
| Route | GRALA1A GRALA DCT ANEGI DCT PELNI DCT IGTAN IGTAN1C |
| Aircraft | A320/M-SDE3FGHIRWY/LB1 |
Departure
| Time | N/A |
|---|---|
| Airport | Monterrey International Airport (MMMY) |
Arrival
| Time | 2026-04-25 19:51 |
|---|---|
| Airport | General Ignacio L. Pesqueira International Airport (MMHO) |
| Time | Latitude | Longitude | Altitude | Speed | Heading |
|---|---|---|---|---|---|
| 2026-04-25 19:37 | 29.04192 | -110.06092 | 17328 ft | 305 kts | 275° |
| 2026-04-25 19:37 | 29.04427 | -110.08503 | 16901 ft | 304 kts | 275° |
| 2026-04-25 19:38 | 29.04658 | -110.10904 | 16410 ft | 303 kts | 275° |
| 2026-04-25 19:38 | 29.04886 | -110.13296 | 15977 ft | 304 kts | 275° |
| 2026-04-25 19:38 | 29.05111 | -110.15694 | 15542 ft | 303 kts | 275° |
| 2026-04-25 19:38 | 29.05336 | -110.18097 | 15111 ft | 303 kts | 275° |
| 2026-04-25 19:39 | 29.05564 | -110.20497 | 14674 ft | 304 kts | 275° |
| 2026-04-25 19:39 | 29.05795 | -110.22900 | 14249 ft | 304 kts | 275° |
| 2026-04-25 19:39 | 29.06025 | -110.25309 | 13818 ft | 306 kts | 275° |
| 2026-04-25 19:39 | 29.06251 | -110.27706 | 13354 ft | 307 kts | 275° |
| 2026-04-25 19:40 | 29.06478 | -110.30127 | 12909 ft | 306 kts | 275° |
| 2026-04-25 19:40 | 29.06707 | -110.32551 | 12474 ft | 306 kts | 275° |
| 2026-04-25 19:40 | 29.06934 | -110.34958 | 12045 ft | 305 kts | 275° |
| 2026-04-25 19:40 | 29.07159 | -110.37362 | 11600 ft | 301 kts | 275° |
| 2026-04-25 19:41 | 29.07380 | -110.39718 | 11193 ft | 296 kts | 275° |
| 2026-04-25 19:41 | 29.07599 | -110.42051 | 10782 ft | 293 kts | 275° |
| 2026-04-25 19:41 | 29.07815 | -110.44364 | 10359 ft | 292 kts | 275° |
| 2026-04-25 19:41 | 29.07956 | -110.45892 | 10091 ft | 291 kts | 275° |
| 2026-04-25 19:42 | 29.08236 | -110.48894 | 9727 ft | 278 kts | 275° |
| 2026-04-25 19:42 | 29.08439 | -110.51068 | 9530 ft | 272 kts | 275° |
| 2026-04-25 19:42 | 29.08634 | -110.53197 | 9302 ft | 273 kts | 275° |
| 2026-04-25 19:42 | 29.08832 | -110.55348 | 8963 ft | 271 kts | 275° |
| 2026-04-25 19:43 | 29.09030 | -110.57490 | 8606 ft | 271 kts | 274° |
| 2026-04-25 19:43 | 29.09164 | -110.58932 | 8365 ft | 271 kts | 274° |
| 2026-04-25 19:43 | 29.09425 | -110.61777 | 7881 ft | 272 kts | 274° |
| 2026-04-25 19:43 | 29.09623 | -110.63934 | 7520 ft | 273 kts | 274° |
| 2026-04-25 19:44 | 29.09821 | -110.66106 | 7189 ft | 274 kts | 274° |
| 2026-04-25 19:44 | 29.10020 | -110.68280 | 6857 ft | 274 kts | 274° |
| 2026-04-25 19:44 | 29.10219 | -110.70437 | 6590 ft | 271 kts | 274° |
| 2026-04-25 19:44 | 29.10419 | -110.72579 | 6266 ft | 271 kts | 274° |
| 2026-04-25 19:45 | 29.10615 | -110.74721 | 5904 ft | 272 kts | 273° |
| 2026-04-25 19:45 | 29.10813 | -110.76909 | 5179 ft | 278 kts | 273° |
| 2026-04-25 19:45 | 29.11010 | -110.79088 | 4478 ft | 280 kts | 273° |
| 2026-04-25 19:45 | 29.11237 | -110.81271 | 4083 ft | 270 kts | 279° |
| 2026-04-25 19:46 | 29.12009 | -110.83148 | 3971 ft | 255 kts | 307° |
| 2026-04-25 19:46 | 29.13345 | -110.84390 | 3821 ft | 244 kts | 326° |
| 2026-04-25 19:46 | 29.14772 | -110.85374 | 3657 ft | 235 kts | 325° |
| 2026-04-25 19:46 | 29.16140 | -110.86312 | 3512 ft | 223 kts | 325° |
| 2026-04-25 19:47 | 29.17243 | -110.87409 | 3384 ft | 206 kts | 296° |
| 2026-04-25 19:47 | 29.17628 | -110.88907 | 3275 ft | 192 kts | 264° |
| 2026-04-25 19:47 | 29.17288 | -110.90290 | 3168 ft | 173 kts | 237° |
| 2026-04-25 19:47 | 29.16675 | -110.91429 | 3063 ft | 164 kts | 236° |
| 2026-04-25 19:48 | 29.16092 | -110.92525 | 2943 ft | 154 kts | 238° |
| 2026-04-25 19:48 | 29.15539 | -110.93565 | 2845 ft | 149 kts | 236° |
| 2026-04-25 19:48 | 29.15015 | -110.94549 | 2797 ft | 145 kts | 237° |
| 2026-04-25 19:48 | 29.14483 | -110.95552 | 2578 ft | 143 kts | 236° |
| 2026-04-25 19:49 | 29.13979 | -110.96512 | 2364 ft | 141 kts | 237° |
| 2026-04-25 19:49 | 29.13816 | -110.96822 | 2300 ft | 140 kts | 236° |
| 2026-04-25 19:49 | 29.12977 | -110.98401 | 1954 ft | 138 kts | 236° |
| 2026-04-25 19:49 | 29.12485 | -110.99324 | 1761 ft | 138 kts | 236° |
| 2026-04-25 19:50 | 29.11517 | -111.01227 | 1344 ft | 137 kts | 237° |
| 2026-04-25 19:50 | 29.10997 | -111.02154 | 1137 ft | 142 kts | 234° |
| 2026-04-25 19:50 | 29.10475 | -111.03086 | 909 ft | 137 kts | 238° |
| 2026-04-25 19:51 | 29.09992 | -111.04014 | 703 ft | 136 kts | 237° |
| 2026-04-25 19:51 | 29.09525 | -111.04869 | 640 ft | 98 kts | 238° |
| 2026-04-25 19:51 | 29.09328 | -111.05254 | 641 ft | 27 kts | 240° |
| 2026-04-25 19:51 | 29.09236 | -111.05434 | 634 ft | 26 kts | 238° |
| 2026-04-25 19:52 | 29.09146 | -111.05600 | 635 ft | 12 kts | 238° |
| 2026-04-25 19:52 | 29.09084 | -111.05631 | 631 ft | 11 kts | 124° |
| 2026-04-25 19:52 | 29.09076 | -111.05581 | 640 ft | 4 kts | 96° |
| 2026-04-25 19:52 | 29.09075 | -111.05562 | 643 ft | 2 kts | 91° |
| 2026-04-25 19:53 | 29.09075 | -111.05503 | 638 ft | 9 kts | 88° |
| 2026-04-25 19:53 | 29.09080 | -111.05437 | 640 ft | 8 kts | 85° |
| 2026-04-25 19:53 | 29.09085 | -111.05370 | 641 ft | 9 kts | 85° |
| 2026-04-25 19:53 | 29.09110 | -111.05306 | 643 ft | 10 kts | 60° |
| 2026-04-25 19:54 | 29.09122 | -111.05282 | 644 ft | 0 kts | 64° |
| 2026-04-25 19:54 | 29.09120 | -111.05275 | 644 ft | 1 kts | 106° |
| 2026-04-25 19:54 | 29.09114 | -111.05266 | 642 ft | 2 kts | 126° |
| 2026-04-25 19:54 | 29.09111 | -111.05262 | 642 ft | 2 kts | 130° |
| 2026-04-25 19:55 | 29.09083 | -111.05241 | 643 ft | 4 kts | 148° |
| 2026-04-25 19:55 | 29.09070 | -111.05232 | 643 ft | 0 kts | 149° |